Terminal Aerodrome Forecast
Issued by NWS Cleveland, OH

Home | Current Version | Previous Version | Text Only | Print | Product List | Glossary On
Versions: 1 2 3 4 5 6 7 8 9 10 11 12 13 14 15 16 17
275
FTUS41 KCLE 211139
TAFYNG
TAF
KYNG 211139Z 2112/2212 07004KT P6SM SCT080
     FM211900 10004KT P6SM BKN080
     FM220400 17005KT 6SM -SHRA VCTS OVC045CB
     FM221000 18006KT P6SM OVC025=

USA.gov is the U.S. government's official web portal to all federal, state and local government web resources and services.